Time;durP1;ratioP1;P1;durP2;ratioP2;P2;SDS_P1;SDS_P2;PMS_P1;PMS_P2;Temp;Humidity;BMP_temperature;BMP_pressure;BME280_temperature;BME280_humidity;BME280_pressure;Samples;Min_cycle;Max_cycle;Signal;HPM_P1;HPM_P2
2022/03/10 00:00:46;;;;;;;19.87;7.25;;;;;;;7.18;33.74;99164.06;4485783;31;20169;-75
2022/03/10 00:03:12;;;;;;;19.50;7.65;;;;;;;7.17;33.78;99173.69;4485697;31;20262;-79
2022/03/10 00:05:37;;;;;;;19.37;7.28;;;;;;;7.24;33.87;99176.94;4485839;31;20371;-79
2022/03/10 00:08:02;;;;;;;17.92;7.65;;;;;;;7.03;33.94;99174.19;4486546;31;20336;-79
2022/03/10 00:10:28;;;;;;;17.85;7.47;;;;;;;7.01;34.25;99177.75;4485491;31;20107;-80
2022/03/10 00:12:54;;;;;;;19.80;7.10;;;;;;;7.05;34.10;99174.97;4483844;32;20096;-79
2022/03/10 00:15:22;;;;;;;17.30;7.45;;;;;;;7.16;33.94;99177.22;4473544;32;20126;-78
2022/03/10 00:17:48;;;;;;;20.77;7.25;;;;;;;7.22;33.96;99182.28;4485666;32;20088;-81
2022/03/10 00:20:13;;;;;;;18.40;8.30;;;;;;;6.88;33.66;99186.03;4471418;32;20120;-79
2022/03/10 00:22:48;;;;;;;19.62;7.62;;;;;;;6.81;33.99;99187.13;4472466;31;20131;-80
2022/03/10 00:25:15;;;;;;;19.67;7.70;;;;;;;6.75;33.97;99189.09;4487102;31;20108;-83
2022/03/10 00:27:41;;;;;;;18.30;7.68;;;;;;;7.03;33.70;99191.63;4486720;31;20118;-81
2022/03/10 00:30:07;;;;;;;21.17;8.45;;;;;;;7.01;33.77;99199.56;4501029;31;20088;-80
2022/03/10 00:32:40;;;;;;;18.20;7.87;;;;;;;6.89;34.13;99208.69;4501145;31;20561;-80
2022/03/10 00:35:06;;;;;;;19.83;8.00;;;;;;;6.95;34.11;99206.75;4487077;31;20096;-80
2022/03/10 00:37:32;;;;;;;19.48;8.05;;;;;;;6.91;34.38;99216.47;4486467;31;20115;-79
2022/03/10 00:39:57;;;;;;;18.10;7.90;;;;;;;7.01;34.34;99217.91;4487725;31;20415;-81
2022/03/10 00:42:22;;;;;;;19.08;7.82;;;;;;;7.06;34.65;99225.59;4486531;31;20356;-81
2022/03/10 00:44:48;;;;;;;22.35;9.07;;;;;;;7.07;34.95;99229.94;4478346;32;20093;-81
2022/03/10 00:47:13;;;;;;;20.60;8.77;;;;;;;7.02;35.86;99235.31;4486535;32;20097;-83
2022/03/10 00:49:38;;;;;;;20.92;9.43;;;;;;;7.03;37.86;99241.41;4485914;31;20458;-82
2022/03/10 00:52:04;;;;;;;23.00;10.07;;;;;;;7.03;38.53;99244.91;4484889;32;20146;-84
2022/03/10 00:54:30;;;;;;;27.13;11.12;;;;;;;7.06;38.80;99241.31;4475960;31;20440;-81
2022/03/10 00:56:55;;;;;;;25.25;10.18;;;;;;;7.06;39.03;99236.94;4489917;31;20114;-82
2022/03/10 00:59:20;;;;;;;22.65;10.82;;;;;;;7.11;39.48;99249.91;4466527;31;20131;-82
2022/03/10 01:01:46;;;;;;;21.90;10.43;;;;;;;7.06;40.02;99252.66;4486522;31;20506;-81
2022/03/10 01:04:11;;;;;;;21.40;9.73;;;;;;;7.14;40.19;99255.00;4486363;32;20084;-81
2022/03/10 01:06:39;;;;;;;27.73;12.13;;;;;;;7.20;40.47;99260.03;4475989;31;20135;-82
2022/03/10 01:09:05;;;;;;;26.52;11.32;;;;;;;7.21;40.88;99256.53;4502122;31;20114;-81
2022/03/10 01:11:30;;;;;;;22.40;11.65;;;;;;;7.21;41.08;99261.78;4502038;31;20151;-82
2022/03/10 01:13:57;;;;;;;23.70;11.07;;;;;;;7.23;41.15;99261.72;4486027;31;20482;-80
2022/03/10 01:16:22;;;;;;;23.35;11.20;;;;;;;7.20;41.26;99265.28;4486193;32;20474;-81
2022/03/10 01:18:48;;;;;;;24.92;12.15;;;;;;;7.25;41.29;99263.38;4485142;32;20104;-81
2022/03/10 01:21:13;;;;;;;21.37;10.98;;;;;;;7.03;41.97;99262.37;4486183;32;20118;-81
2022/03/10 01:23:38;;;;;;;23.50;10.82;;;;;;;7.14;41.80;99257.62;4486043;32;20092;-81
2022/03/10 01:26:04;;;;;;;23.92;10.45;;;;;;;7.21;42.34;99264.41;4486157;32;20106;-81
2022/03/10 01:28:29;;;;;;;26.80;10.65;;;;;;;7.20;42.95;99259.19;4486192;32;20132;-81
2022/03/10 01:30:55;;;;;;;23.92;10.57;;;;;;;7.09;43.65;99270.06;4485942;32;20116;-82
2022/03/10 01:33:20;;;;;;;22.65;10.60;;;;;;;7.10;44.07;99271.75;4485832;31;20439;-81
2022/03/10 01:35:45;;;;;;;23.55;11.18;;;;;;;7.07;44.48;99271.88;4495902;31;20106;-81
2022/03/10 01:38:11;;;;;;;24.67;11.63;;;;;;;7.10;44.99;99269.13;4488953;31;20104;-81
2022/03/10 01:40:36;;;;;;;22.10;11.23;;;;;;;7.13;45.50;99273.41;4501502;31;20174;-81
2022/03/10 01:43:02;;;;;;;24.85;10.68;;;;;;;7.18;45.47;99282.81;4501348;31;20096;-81
2022/03/10 01:45:28;;;;;;;23.33;9.95;;;;;;;7.24;45.48;99273.91;4501017;31;20114;-81
2022/03/10 01:47:53;;;;;;;22.73;11.00;;;;;;;7.27;45.39;99279.91;4489505;31;20080;-81
2022/03/10 01:50:19;;;;;;;25.08;10.98;;;;;;;7.31;45.34;99282.44;4486464;31;20130;-82
2022/03/10 01:52:45;;;;;;;22.70;10.30;;;;;;;7.33;45.31;99284.09;4488008;31;20317;-81
2022/03/10 01:55:11;;;;;;;24.20;10.90;;;;;;;7.38;45.32;99283.94;4486666;32;20481;-81
2022/03/10 01:57:37;;;;;;;25.35;10.60;;;;;;;7.38;45.27;99284.81;4497888;31;20451;-81
2022/03/10 02:00:04;;;;;;;27.08;11.27;;;;;;;7.39;45.33;99288.28;4489182;31;20107;-81
2022/03/10 02:02:30;;;;;;;24.58;12.32;;;;;;;7.37;45.57;99283.06;4500809;31;20114;-81
2022/03/10 02:04:55;;;;;;;23.48;11.30;;;;;;;7.35;45.77;99290.13;4487816;31;20073;-81
2022/03/10 02:10:17;;;;;;;26.37;11.50;;;;;;;7.37;46.18;99297.94;4487931;32;20122;-80
2022/03/10 02:13:01;;;;;;;25.00;11.70;;;;;;;7.35;46.43;99292.75;4486880;32;20165;-82
2022/03/10 02:18:12;;;;;;;24.20;11.52;;;;;;;7.42;46.64;99301.28;4491081;31;20228;-81
2022/03/10 02:20:39;;;;;;;26.95;11.40;;;;;;;7.40;46.70;99305.72;4503354;31;20092;-82
2022/03/10 02:23:06;;;;;;;26.12;11.75;;;;;;;7.33;45.71;99298.97;4503498;31;20092;-82
2022/03/10 02:25:33;;;;;;;25.50;12.50;;;;;;;7.14;46.12;99306.56;4489144;31;20084;-81
2022/03/10 02:27:59;;;;;;;24.00;12.00;;;;;;;7.25;46.44;99313.16;4489187;31;20143;-81
2022/03/10 02:30:28;;;;;;;25.92;12.05;;;;;;;7.22;46.85;99310.66;4501887;31;20108;-81
2022/03/10 02:32:54;;;;;;;26.17;12.85;;;;;;;7.27;47.21;99302.66;4489291;31;20444;-81
2022/03/10 02:35:19;;;;;;;29.87;12.93;;;;;;;7.28;47.76;99306.97;4503391;31;20103;-82
2022/03/10 02:37:45;;;;;;;26.17;12.45;;;;;;;6.95;48.82;99316.78;4503127;31;20099;-81
2022/03/10 02:40:11;;;;;;;26.87;12.30;;;;;;;7.15;48.34;99322.25;4489171;31;20134;-82
2022/03/10 02:42:37;;;;;;;27.50;13.80;;;;;;;7.24;48.27;99327.19;4489029;31;20363;-82
2022/03/10 02:45:03;;;;;;;27.33;12.80;;;;;;;7.26;48.52;99328.00;4503195;31;20133;-81
2022/03/10 02:47:28;;;;;;;28.73;12.55;;;;;;;7.32;48.70;99328.69;4490996;31;20099;-82
2022/03/10 02:49:54;;;;;;;25.67;11.48;;;;;;;7.39;48.08;99330.22;4487329;31;20092;-81
2022/03/10 02:52:19;;;;;;;27.52;12.05;;;;;;;7.42;47.84;99338.00;4487284;31;20096;-81
2022/03/10 02:54:45;;;;;;;25.02;12.37;;;;;;;7.42;47.40;99344.09;4483593;32;20110;-81
2022/03/10 02:57:12;;;;;;;24.70;11.95;;;;;;;7.47;47.11;99342.19;4472871;32;20136;-81
2022/03/10 02:59:37;;;;;;;25.48;12.45;;;;;;;7.53;46.94;99346.31;4472724;32;20184;-81
2022/03/10 03:02:04;;;;;;;28.83;12.82;;;;;;;7.46;47.12;99345.69;4487406;32;20097;-81
2022/03/10 03:04:29;;;;;;;29.33;13.75;;;;;;;7.46;47.22;99350.09;4487307;32;20156;-81
2022/03/10 03:06:55;;;;;;;27.00;13.57;;;;;;;7.50;47.32;99351.69;4473106;32;20115;-80
2022/03/10 03:09:20;;;;;;;25.77;13.02;;;;;;;7.50;47.69;99351.69;4487257;32;20096;-82
2022/03/10 03:11:46;;;;;;;27.85;13.52;;;;;;;7.59;48.03;99350.50;4473066;32;20100;-82
2022/03/10 03:14:11;;;;;;;29.50;14.25;;;;;;;7.56;48.44;99358.50;4487344;32;20080;-82
2022/03/10 03:16:37;;;;;;;27.27;13.55;;;;;;;7.46;49.06;99363.19;4492847;31;20287;-82
2022/03/10 03:19:03;;;;;;;27.58;13.10;;;;;;;7.56;48.90;99366.38;4488452;31;20131;-82
2022/03/10 03:21:28;;;;;;;28.95;13.30;;;;;;;7.51;49.14;99363.03;4503109;31;20088;-82
2022/03/10 03:23:54;;;;;;;31.00;13.70;;;;;;;7.53;49.25;99367.31;4502884;31;20416;-82
2022/03/10 03:26:19;;;;;;;29.77;14.55;;;;;;;7.52;49.08;99365.59;4503042;31;20106;-82
2022/03/10 03:28:44;;;;;;;30.08;13.93;;;;;;;7.58;48.95;99369.78;4488923;31;20458;-82
2022/03/10 03:31:11;;;;;;;28.62;13.25;;;;;;;7.65;48.66;99373.94;4503277;31;20084;-82
2022/03/10 03:33:37;;;;;;;28.98;13.68;;;;;;;7.67;48.59;99375.59;4488740;31;20084;-82
2022/03/10 03:36:03;;;;;;;30.48;14.55;;;;;;;7.64;48.67;99378.31;4488785;31;20098;-82
2022/03/10 03:38:28;;;;;;;29.33;13.93;;;;;;;7.64;48.69;99383.53;4488829;31;20108;-83
2022/03/10 03:40:54;;;;;;;30.12;15.13;;;;;;;7.61;48.77;99382.78;4503290;31;20105;-83
2022/03/10 03:43:19;;;;;;;29.70;13.60;;;;;;;7.48;49.10;99390.22;4488870;31;20106;-82
2022/03/10 03:45:45;;;;;;;28.10;14.45;;;;;;;7.68;48.48;99392.16;4500571;31;20096;-82
2022/03/10 03:48:10;;;;;;;31.02;13.88;;;;;;;7.63;48.41;99404.56;4487283;31;20141;-82
2022/03/10 03:50:35;;;;;;;30.50;14.23;;;;;;;7.61;48.33;99409.88;4485914;32;20092;-82
2022/03/10 03:53:01;;;;;;;29.00;13.88;;;;;;;7.11;49.25;99414.06;4487145;31;20081;-82
2022/03/10 03:55:27;;;;;;;29.42;13.70;;;;;;;7.42;48.57;99414.00;4475259;31;20421;-82
2022/03/10 03:57:53;;;;;;;28.20;14.07;;;;;;;7.47;48.20;99423.44;4488611;31;20510;-82
2022/03/10 04:00:19;;;;;;;33.53;15.50;;;;;;;7.42;48.21;99425.34;4502991;31;20100;-83
2022/03/10 04:02:45;;;;;;;29.12;13.73;;;;;;;7.36;48.49;99422.03;4502737;31;20117;-82
2022/03/10 04:05:11;;;;;;;28.75;13.73;;;;;;;7.18;48.73;99433.94;4488473;31;20394;-82
2022/03/10 04:07:37;;;;;;;35.38;14.75;;;;;;;7.03;49.00;99425.66;4502557;31;20114;-82
2022/03/10 04:10:03;;;;;;;30.55;14.65;;;;;;;6.83;50.13;99444.56;4488411;31;20104;-82
2022/03/10 04:12:29;;;;;;;36.30;14.82;;;;;;;7.01;49.99;99450.16;4501791;31;20117;-83
2022/03/10 04:14:54;;;;;;;31.25;13.75;;;;;;;6.93;50.00;99453.00;4501926;31;20359;-82
2022/03/10 04:17:20;;;;;;;28.77;14.10;;;;;;;6.86;50.26;99460.19;4502528;31;20096;-83
2022/03/10 04:19:45;;;;;;;32.55;13.95;;;;;;;6.86;50.07;99462.81;4502516;31;20108;-82
2022/03/10 04:22:11;;;;;;;33.22;15.15;;;;;;;6.72;50.47;99475.44;4502646;31;20184;-82
2022/03/10 04:24:36;;;;;;;34.20;15.68;;;;;;;6.36;51.46;99472.06;4502495;31;20079;-83
2022/03/10 04:27:03;;;;;;;33.10;15.15;;;;;;;6.59;51.09;99477.53;4502387;31;20100;-82
2022/03/10 04:29:28;;;;;;;30.10;14.52;;;;;;;6.44;51.51;99476.19;4488211;31;20160;-82
2022/03/10 04:31:54;;;;;;;29.30;13.40;;;;;;;6.49;51.18;99476.09;4502435;31;20088;-82
2022/03/10 04:34:19;;;;;;;23.12;9.95;;;;;;;6.47;50.25;99497.06;4502305;31;20327;-82
2022/03/10 04:36:45;;;;;;;25.90;10.48;;;;;;;6.30;48.17;99507.97;4502176;31;20076;-82
2022/03/10 04:39:10;;;;;;;22.35;10.68;;;;;;;5.99;47.67;99499.13;4487937;31;20126;-82
2022/03/10 04:41:35;;;;;;;18.73;8.32;;;;;;;6.13;47.77;99517.12;4487941;31;20091;-81
2022/03/10 04:44:01;;;;;;;21.25;8.68;;;;;;;5.81;46.58;99503.03;4502229;31;20401;-81
2022/03/10 04:46:26;;;;;;;19.60;8.18;;;;;;;5.55;46.26;99508.88;4475224;32;20144;-80
2022/03/10 04:48:52;;;;;;;19.55;7.87;;;;;;;5.49;45.74;99518.56;4486476;32;20425;-81
2022/03/10 04:51:17;;;;;;;20.92;8.95;;;;;;;5.66;45.96;99517.31;4494048;31;20110;-81
2022/03/10 04:53:43;;;;;;;17.50;6.87;;;;;;;5.65;45.58;99523.44;4487630;31;20485;-82
2022/03/10 04:56:08;;;;;;;16.87;6.45;;;;;;;5.52;44.52;99522.84;4474036;32;20108;-82
2022/03/10 04:58:34;;;;;;;18.42;7.10;;;;;;;5.55;44.30;99525.41;4486382;32;20471;-82
2022/03/10 05:00:59;;;;;;;14.35;6.00;;;;;;;5.69;43.13;99519.88;4486272;32;20112;-82
2022/03/10 05:03:25;;;;;;;15.48;5.68;;;;;;;5.58;42.59;99529.69;4488061;31;20085;-81
2022/03/10 05:05:50;;;;;;;15.60;5.45;;;;;;;5.38;42.21;99527.53;4485345;32;20397;-80
2022/03/10 05:08:16;;;;;;;16.35;5.87;;;;;;;5.34;42.08;99521.50;4486136;32;20489;-79
2022/03/10 05:10:41;;;;;;;14.75;4.82;;;;;;;5.54;42.03;99528.91;4485819;32;20084;-79
2022/03/10 05:13:07;;;;;;;13.75;4.93;;;;;;;5.58;41.63;99538.44;4485946;32;20112;-80
2022/03/10 05:15:33;;;;;;;13.30;5.18;;;;;;;5.44;41.27;99543.94;4487442;31;20111;-82
2022/03/10 05:18:00;;;;;;;12.73;4.60;;;;;;;5.52;41.07;99546.38;4471365;32;20096;-81
2022/03/10 05:20:26;;;;;;;15.48;5.05;;;;;;;5.70;40.83;99548.59;4471848;32;20160;-80
2022/03/10 05:22:53;;;;;;;13.02;4.72;;;;;;;5.81;39.91;99550.94;4471683;32;20106;-79
2022/03/10 05:25:20;;;;;;;15.40;5.10;;;;;;;5.71;39.78;99563.38;4488276;32;20524;-78
2022/03/10 05:27:46;;;;;;;12.90;4.15;;;;;;;5.34;40.50;99565.06;4473937;32;20119;-77
2022/03/10 05:30:12;;;;;;;13.43;4.95;;;;;;;5.45;40.39;99561.34;4473354;32;20159;-78
2022/03/10 05:32:38;;;;;;;14.20;4.85;;;;;;;5.60;39.99;99562.78;4473649;32;20422;-78
2022/03/10 05:35:04;;;;;;;11.82;4.20;;;;;;;5.64;39.97;99572.25;4487626;31;20108;-78
2022/03/10 05:37:30;;;;;;;11.73;4.40;;;;;;;5.37;40.57;99573.72;4489276;31;20123;-78
2022/03/10 05:39:56;;;;;;;13.23;4.68;;;;;;;5.50;40.16;99571.69;4489250;31;20140;-79
2022/03/10 05:42:21;;;;;;;14.25;5.03;;;;;;;5.44;40.44;99575.28;4489751;31;20084;-79
2022/03/10 05:44:47;;;;;;;12.20;3.92;;;;;;;5.51;40.09;99574.28;4496177;31;20147;-79
2022/03/10 05:47:12;;;;;;;15.98;4.78;;;;;;;5.51;40.11;99581.25;4487881;32;20118;-80
2022/03/10 05:49:37;;;;;;;12.98;3.95;;;;;;;5.42;40.11;99584.06;4492929;31;20084;-80
2022/03/10 05:52:04;;;;;;;12.05;4.55;;;;;;;5.53;40.07;99596.91;4486583;31;20341;-78
2022/03/10 05:54:29;;;;;;;14.35;4.80;;;;;;;5.64;39.72;99597.53;4486700;32;20135;-80
2022/03/10 05:56:55;;;;;;;13.15;4.65;;;;;;;5.43;40.00;99596.25;4486585;32;20104;-79
2022/03/10 05:59:23;;;;;;;13.62;4.50;;;;;;;5.68;39.39;99596.59;4487774;31;20112;-79
2022/03/10 06:01:49;;;;;;;12.45;4.20;;;;;;;5.33;40.14;99600.78;4486575;32;20175;-79
2022/03/10 06:04:15;;;;;;;13.07;4.70;;;;;;;5.45;40.08;99602.31;4492132;31;20092;-79
2022/03/10 06:06:43;;;;;;;15.75;4.93;;;;;;;5.55;40.01;99601.22;4476290;31;20245;-80
2022/03/10 06:09:09;;;;;;;13.98;4.47;;;;;;;5.64;40.14;99602.75;4492999;31;20088;-80
2022/03/10 06:11:35;;;;;;;15.43;5.18;;;;;;;5.68;40.57;99601.81;4486631;32;20118;-81
2022/03/10 06:14:00;;;;;;;13.40;4.65;;;;;;;5.67;40.74;99610.53;4487946;31;20448;-81
2022/03/10 06:16:26;;;;;;;12.82;4.43;;;;;;;5.53;41.11;99618.69;4486712;32;20418;-82
2022/03/10 06:18:52;;;;;;;13.20;4.70;;;;;;;5.71;40.75;99620.03;4487904;31;20124;-80
2022/03/10 06:21:17;;;;;;;16.62;4.78;;;;;;;5.77;40.37;99616.44;4486726;32;20088;-80
2022/03/10 06:23:42;;;;;;;13.45;4.43;;;;;;;5.86;39.96;99621.47;4498219;31;20128;-80
2022/03/10 06:26:08;;;;;;;12.93;4.50;;;;;;;5.76;39.95;99625.19;4503188;31;20092;-81
2022/03/10 06:28:34;;;;;;;13.50;4.62;;;;;;;4.98;40.59;99635.41;4503472;31;20055;-81
2022/03/10 06:30:59;;;;;;;12.73;4.18;;;;;;;5.15;40.09;99640.34;4503369;31;20091;-81
2022/03/10 06:33:25;;;;;;;11.20;3.83;;;;;;;5.27;39.55;99647.91;4503362;31;20100;-80
2022/03/10 06:35:50;;;;;;;13.32;4.07;;;;;;;4.92;39.87;99668.59;4473564;32;20096;-81
2022/03/10 06:38:16;;;;;;;13.35;4.62;;;;;;;4.78;40.38;99648.81;4473108;32;20102;-80
2022/03/10 06:40:42;;;;;;;12.73;4.97;;;;;;;4.98;39.98;99653.69;4487453;32;20124;-80
2022/03/10 06:43:07;;;;;;;12.55;4.20;;;;;;;5.10;39.72;99654.34;4487397;31;20398;-80
2022/03/10 06:45:32;;;;;;;14.65;4.55;;;;;;;5.45;39.07;99660.66;4487511;31;20080;-81
2022/03/10 06:47:58;;;;;;;11.82;3.87;;;;;;;5.27;38.80;99666.22;4487596;31;20085;-80
2022/03/10 06:50:24;;;;;;;14.02;4.30;;;;;;;5.08;39.05;99668.28;4487035;31;20147;-80
2022/03/10 06:52:52;;;;;;;12.05;4.05;;;;;;;5.10;38.90;99658.72;4485895;32;20124;-80
2022/03/10 06:55:19;;;;;;;12.57;4.00;;;;;;;5.16;39.12;99666.44;4486157;32;20156;-80
2022/03/10 06:57:46;;;;;;;14.73;5.03;;;;;;;5.30;38.82;99677.47;4487373;31;20097;-80
2022/03/10 07:00:12;;;;;;;14.25;4.40;;;;;;;5.16;38.80;99674.25;4486217;32;20432;-80
2022/03/10 07:02:37;;;;;;;11.43;4.57;;;;;;;5.36;38.60;99684.34;4486165;32;20143;-80
2022/03/10 07:05:03;;;;;;;12.57;4.30;;;;;;;5.25;38.42;99673.22;4496665;31;20254;-81
2022/03/10 07:07:29;;;;;;;14.18;4.40;;;;;;;5.44;38.11;99682.44;4503243;31;20092;-81
2022/03/10 07:09:54;;;;;;;11.35;4.37;;;;;;;4.93;38.95;99688.59;4488826;31;20119;-81
2022/03/10 07:12:19;;;;;;;12.65;4.55;;;;;;;5.32;38.31;99675.69;4502907;31;20138;-80
2022/03/10 07:14:45;;;;;;;12.27;4.28;;;;;;;5.61;37.68;99691.72;4503183;31;20381;-80
2022/03/10 07:17:10;;;;;;;11.30;4.55;;;;;;;5.82;37.25;99680.81;4502928;31;20091;-81
2022/03/10 07:19:36;;;;;;;11.57;3.97;;;;;;;6.03;37.02;99682.13;4488620;31;20091;-80
2022/03/10 07:22:01;;;;;;;13.93;4.60;;;;;;;5.52;37.38;99700.56;4503235;31;20122;-80
2022/03/10 07:24:27;;;;;;;12.27;4.00;;;;;;;5.96;36.60;99698.84;4503124;31;20168;-80
2022/03/10 07:26:52;;;;;;;14.40;4.30;;;;;;;5.94;36.48;99698.00;4503061;31;20333;-81
2022/03/10 07:29:18;;;;;;;14.00;4.50;;;;;;;5.79;37.11;99699.16;4502859;31;20132;-83
2022/03/10 07:31:43;;;;;;;12.18;4.40;;;;;;;5.97;36.70;99708.44;4503072;31;20084;-80
2022/03/10 07:34:09;;;;;;;10.85;3.87;;;;;;;6.15;35.82;99701.09;4480207;32;81301;-84
2022/03/10 07:36:34;;;;;;;11.60;4.12;;;;;;;6.21;35.84;99704.41;4486947;31;20076;-79
2022/03/10 07:38:59;;;;;;;11.88;4.25;;;;;;;6.45;35.63;99708.25;4494256;31;20089;-79
2022/03/10 07:41:25;;;;;;;13.75;4.53;;;;;;;6.75;35.29;99695.31;4494530;31;20386;-79
2022/03/10 07:43:53;;;;;;;12.57;4.28;;;;;;;6.74;35.03;99706.72;4492711;31;20114;-78
2022/03/10 07:46:22;;;;;;;13.10;4.30;;;;;;;6.66;35.01;99704.28;4492113;31;20605;-81
2022/03/10 07:48:48;;;;;;;10.88;4.03;;;;;;;6.74;34.83;99701.47;4482312;31;20100;-80
2022/03/10 07:51:14;;;;;;;12.90;4.12;;;;;;;6.63;34.89;99706.09;4492358;31;20525;-80
2022/03/10 07:53:39;;;;;;;11.73;3.83;;;;;;;6.87;34.31;99702.88;4480646;32;20126;-81
2022/03/10 07:56:05;;;;;;;15.38;4.60;;;;;;;6.69;34.60;99701.56;4493689;31;20379;-80
2022/03/10 07:58:31;;;;;;;12.00;4.22;;;;;;;6.73;34.70;99701.50;4477886;32;20376;-81
2022/03/10 08:00:57;;;;;;;12.80;4.80;;;;;;;6.68;34.70;99699.84;4488175;31;20126;-80
2022/03/10 08:03:23;;;;;;;13.10;4.87;;;;;;;5.83;36.32;99713.03;4486535;32;20092;-80
2022/03/10 08:05:50;;;;;;;13.40;4.82;;;;;;;6.12;35.80;99708.97;4496032;31;20118;-80
2022/03/10 08:08:15;;;;;;;12.87;4.53;;;;;;;6.22;35.97;99715.72;4494976;31;20115;-80
2022/03/10 08:10:41;;;;;;;13.60;4.60;;;;;;;6.19;35.30;99721.91;4490861;31;20147;-80
2022/03/10 08:13:06;;;;;;;12.68;4.28;;;;;;;6.18;35.64;99707.12;4487238;31;20114;-80
2022/03/10 08:15:32;;;;;;;13.23;4.32;;;;;;;6.00;35.54;99718.81;4497584;31;20156;-80
2022/03/10 08:17:57;;;;;;;11.60;4.20;;;;;;;6.35;34.61;99706.72;4490678;31;20174;-80
2022/03/10 08:20:23;;;;;;;11.98;4.72;;;;;;;6.36;34.63;99703.22;4484469;31;20116;-80
2022/03/10 08:22:49;;;;;;;12.85;4.30;;;;;;;6.49;34.68;99706.44;4486564;31;20104;-81
2022/03/10 08:25:14;;;;;;;13.62;4.85;;;;;;;6.33;34.62;99712.88;4487057;31;20139;-80
2022/03/10 08:27:40;;;;;;;11.73;4.20;;;;;;;6.32;34.53;99704.19;4486411;31;20376;-80
2022/03/10 08:30:06;;;;;;;14.95;4.68;;;;;;;6.51;34.73;99702.00;4487822;31;20400;-80
2022/03/10 08:32:31;;;;;;;11.77;4.68;;;;;;;6.51;34.11;99699.41;4502509;31;20115;-80
2022/03/10 08:34:57;;;;;;;12.63;4.32;;;;;;;6.58;33.99;99706.19;4501846;31;20157;-80
2022/03/10 08:37:23;;;;;;;13.15;3.95;;;;;;;6.41;33.41;99713.56;4502287;31;20432;-80
2022/03/10 08:39:48;;;;;;;11.88;3.85;;;;;;;6.56;33.12;99704.50;4502378;31;20352;-80
2022/03/10 08:42:13;;;;;;;11.32;4.18;;;;;;;6.55;33.08;99702.78;4502329;31;20144;-80
2022/03/10 08:44:39;;;;;;;12.07;3.65;;;;;;;6.43;32.29;99698.69;4487793;31;20089;-80
2022/03/10 08:47:05;;;;;;;11.88;4.15;;;;;;;6.52;32.12;99700.25;4502411;31;20088;-80
2022/03/10 08:49:30;;;;;;;13.68;4.32;;;;;;;6.10;32.98;99702.06;4502375;31;20355;-80
2022/03/10 08:51:55;;;;;;;11.75;4.07;;;;;;;5.91;33.12;99705.91;4502218;31;20142;-81
2022/03/10 08:54:21;;;;;;;10.38;3.58;;;;;;;6.21;30.50;99696.56;4502510;31;20084;-81
2022/03/10 08:56:47;;;;;;;14.40;3.70;;;;;;;6.38;29.77;99690.09;4502380;31;20080;-81
2022/03/10 08:59:12;;;;;;;9.43;3.42;;;;;;;6.44;30.27;99703.03;4489814;31;20104;-81
2022/03/10 09:01:38;;;;;;;11.85;3.67;;;;;;;6.52;30.08;99710.72;4504142;31;20106;-81
2022/03/10 09:04:03;;;;;;;13.30;3.97;;;;;;;6.72;29.45;99705.00;4483193;31;20096;-80
2022/03/10 09:06:29;;;;;;;12.80;4.10;;;;;;;6.87;29.36;99710.72;4486815;31;20076;-81
2022/03/10 09:08:55;;;;;;;11.00;4.05;;;;;;;6.75;29.54;99729.34;4488139;32;20130;-80
2022/03/10 09:11:20;;;;;;;10.43;3.40;;;;;;;6.77;29.09;99719.72;4491742;31;20092;-79
2022/03/10 09:13:48;;;;;;;13.57;3.70;;;;;;;6.43;29.97;99724.88;4494611;31;20091;-77
2022/03/10 09:16:18;;;;;;;10.73;3.80;;;;;;;6.67;29.38;99734.78;4488457;31;20080;-75
2022/03/10 09:18:45;;;;;;;11.55;3.75;;;;;;;6.79;28.82;99727.53;4489826;31;20100;-75
2022/03/10 09:21:11;;;;;;;10.15;3.80;;;;;;;6.84;28.86;99730.91;4489990;31;20108;-75
2022/03/10 09:23:37;;;;;;;11.10;4.20;;;;;;;6.66;29.15;99727.84;4504226;31;20080;-75
2022/03/10 09:26:02;;;;;;;8.80;3.12;;;;;;;6.72;28.24;99728.56;4504127;31;20079;-75
2022/03/10 09:28:28;;;;;;;11.40;3.22;;;;;;;6.75;27.97;99725.88;4504020;31;20096;-75
2022/03/10 09:30:53;;;;;;;9.63;3.35;;;;;;;6.91;27.74;99722.00;4474173;32;20101;-75
2022/03/10 09:33:19;;;;;;;10.90;3.78;;;;;;;6.90;27.62;99722.91;4488051;32;20578;-78
2022/03/10 09:35:44;;;;;;;14.73;4.00;;;;;;;6.97;27.43;99720.97;4483749;31;20092;-76
2022/03/10 09:38:09;;;;;;;10.88;3.20;;;;;;;6.78;27.10;99733.66;4489422;31;20386;-77
2022/03/10 09:40:35;;;;;;;10.43;3.08;;;;;;;6.86;26.63;99729.13;4489510;31;20123;-77
2022/03/10 09:43:00;;;;;;;17.08;3.60;;;;;;;7.01;25.95;99735.72;4487809;31;20398;-76
2022/03/10 09:45:29;;;;;;;10.68;3.37;;;;;;;7.01;25.79;99726.13;4480846;31;20225;-76
2022/03/10 09:47:55;;;;;;;11.43;3.65;;;;;;;7.19;25.74;99732.66;4473627;32;20104;-77
2022/03/10 09:50:20;;;;;;;9.85;3.22;;;;;;;6.73;26.82;99740.78;4487868;32;20093;-77
2022/03/10 09:52:46;;;;;;;10.57;3.40;;;;;;;6.86;26.25;99750.06;4473404;32;20116;-77
2022/03/10 09:55:14;;;;;;;11.93;3.37;;;;;;;6.90;26.40;99749.09;4487845;32;20088;-77
2022/03/10 09:57:42;;;;;;;10.55;3.65;;;;;;;7.01;25.12;99733.09;4460587;32;20100;-77
2022/03/10 10:00:10;;;;;;;10.18;3.12;;;;;;;6.91;25.81;99734.22;4473606;32;20175;-76
2022/03/10 10:02:36;;;;;;;;;;;;;;;7.11;25.71;99738.97;4474001;32;20159;-76
2022/03/10 10:05:02;;;;;;;8.85;3.00;;;;;;;7.16;24.74;99744.97;4473766;32;20296;-76
2022/03/10 10:07:29;;;;;;;10.45;3.25;;;;;;;7.21;25.18;99741.31;4473027;32;20140;-76
2022/03/10 10:09:56;;;;;;;11.48;3.20;;;;;;;7.34;24.90;99741.00;4487193;32;20122;-76
2022/03/10 10:12:27;;;;;;;10.50;3.43;;;;;;;7.25;25.33;99755.22;4473568;32;20088;-76
2022/03/10 10:14:52;;;;;;;11.50;4.12;;;;;;;7.35;25.33;99753.22;4473557;32;20193;-77
2022/03/10 10:17:29;;;;;;;11.85;3.42;;;;;;;7.34;25.03;99738.38;4472165;31;20151;-77
2022/03/10 10:19:57;;;;;;;9.75;3.40;;;;;;;7.45;25.18;99744.22;4488636;31;20099;-78
2022/03/10 10:22:24;;;;;;;9.63;2.70;;;;;;;7.45;25.98;99739.81;4473635;32;20388;-79
2022/03/10 10:24:54;;;;;;;10.02;2.87;;;;;;;7.62;25.13;99743.75;4473531;32;20137;-77
2022/03/10 10:27:33;;;;;;;9.25;2.50;;;;;;;7.57;25.13;99738.66;4487557;31;20292;-78
2022/03/10 10:30:01;;;;;;;10.05;3.08;;;;;;;7.67;24.34;99734.00;4487856;31;20087;-77
2022/03/10 10:32:29;;;;;;;10.73;3.22;;;;;;;7.80;23.91;99745.00;4486864;31;20147;-76
2022/03/10 10:35:07;;;;;;;13.50;3.70;;;;;;;7.82;24.03;99744.09;4487692;31;20107;-76
2022/03/10 10:37:33;;;;;;;10.57;3.50;;;;;;;7.57;25.50;99749.16;4486386;32;20108;-78
2022/03/10 10:39:58;;;;;;;12.77;3.75;;;;;;;7.76;26.34;99754.72;4489771;31;20072;-79
2022/03/10 10:42:29;;;;;;;10.73;3.22;;;;;;;7.80;25.32;99745.00;4490776;31;20115;-78
2022/03/10 10:44:56;;;;;;;11.77;4.72;;;;;;;7.53;25.98;99746.62;4489958;31;20106;-78
2022/03/10 10:47:22;;;;;;;11.05;3.30;;;;;;;7.87;25.90;99741.31;4492758;31;20096;-77
2022/03/10 10:50:02;;;;;;;9.65;2.67;;;;;;;7.96;24.98;99732.31;4493822;31;20157;-77
2022/03/10 10:52:39;;;;;;;11.15;3.42;;;;;;;7.85;24.80;99732.63;4481309;32;20122;-78
2022/03/10 10:55:10;;;;;;;11.75;3.80;;;;;;;7.94;25.21;99739.38;4491410;31;20088;-79
2022/03/10 10:57:37;;;;;;;16.52;3.70;;;;;;;8.06;25.44;99744.28;4480384;31;20134;-79
2022/03/10 11:00:13;;;;;;;11.77;3.80;;;;;;;8.21;25.53;99735.09;4487568;31;20105;-78
2022/03/10 11:02:43;;;;;;;12.20;4.28;;;;;;;8.21;26.43;99737.72;4486209;32;20459;-78
2022/03/10 11:05:12;;;;;;;13.57;4.57;;;;;;;8.23;26.46;99746.41;4487143;31;20098;-77
2022/03/10 11:07:40;;;;;;;10.32;3.83;;;;;;;8.21;26.37;99749.09;4489134;31;20669;-76
2022/03/10 11:10:11;;;;;;;11.80;3.80;;;;;;;8.14;26.67;99739.66;4486376;32;20131;-75
2022/03/10 11:12:40;;;;;;;11.10;3.80;;;;;;;8.26;25.46;99749.78;4486364;31;20108;-76
2022/03/10 11:15:07;;;;;;;11.52;3.58;;;;;;;8.13;25.94;99755.44;4473342;31;20122;-76
2022/03/10 11:17:33;;;;;;;11.80;3.90;;;;;;;8.19;26.03;99750.00;4480812;31;20096;-76
2022/03/10 11:19:59;;;;;;;10.82;3.72;;;;;;;8.03;25.81;99755.72;4487710;31;20122;-76
2022/03/10 11:22:56;;;;;;;10.10;3.42;;;;;;;8.04;25.76;99752.19;4487443;31;20093;-76
2022/03/10 11:25:37;;;;;;;10.93;3.65;;;;;;;7.93;25.14;99751.63;4482905;32;20115;-77
2022/03/10 11:28:09;;;;;;;12.30;3.75;;;;;;;8.21;25.03;99743.84;4486274;32;20114;-78
2022/03/10 11:30:34;;;;;;;9.60;3.30;;;;;;;8.33;24.90;99742.59;4483691;31;20148;-77
2022/03/10 11:33:01;;;;;;;10.90;3.42;;;;;;;8.13;24.87;99739.69;4501648;31;20096;-78